Time;durP1;ratioP1;P1;durP2;ratioP2;P2;SDS_P1;SDS_P2;PMS_P1;PMS_P2;Temp;Humidity;BMP_temperature;BMP_pressure;BME280_temperature;BME280_humidity;BME280_pressure;Samples;Min_cycle;Max_cycle;Signal;HPM_P1;HPM_P2
2021/05/25 00:05:55;;;;;;;7.47;1.10;;;10.80;85.50;;;;;;5070827;28;20032;-85
2021/05/25 00:08:20;;;;;;;2.25;0.80;;;10.80;85.40;;;;;;5072653;28;20036;-85
2021/05/25 00:10:46;;;;;;;1.67;0.80;;;10.70;85.70;;;;;;5086314;28;20039;-85
2021/05/25 00:13:12;;;;;;;4.32;1.10;;;10.70;85.50;;;;;;5089617;28;20036;-85
2021/05/25 00:15:37;;;;;;;2.47;0.80;;;10.70;85.50;;;;;;5072437;28;20516;-85
2021/05/25 00:18:04;;;;;;;1.88;0.80;;;10.60;85.60;;;;;;5071803;28;20028;-85
2021/05/25 00:20:31;;;;;;;3.72;0.80;;;10.60;85.70;;;;;;5072116;28;20029;-83
2021/05/25 00:22:56;;;;;;;2.42;1.05;;;10.60;85.80;;;;;;5079641;28;20047;-85
2021/05/25 00:25:22;;;;;;;1.17;0.70;;;10.60;85.40;;;;;;5092574;28;20059;-85
2021/05/25 00:33:32;;;;;;;1.90;0.70;;;10.50;85.60;;;;;;5062031;28;20393;-84
2021/05/25 00:35:58;;;;;;;1.20;0.50;;;10.50;85.80;;;;;;5072287;28;20032;-85
2021/05/25 00:38:24;;;;;;;1.70;0.70;;;10.50;85.80;;;;;;5072292;28;20299;-85
2021/05/25 00:40:50;;;;;;;1.40;0.55;;;10.40;85.70;;;;;;5071965;28;20481;-85
2021/05/25 00:43:15;;;;;;;2.85;1.00;;;10.50;85.40;;;;;;5073009;28;20512;-84
2021/05/25 00:45:41;;;;;;;4.10;0.80;;;10.40;85.50;;;;;;5073153;28;20020;-85
2021/05/25 00:48:07;;;;;;;1.55;0.70;;;10.40;86.10;;;;;;5074404;28;20037;-85
2021/05/25 00:50:33;;;;;;;1.20;0.50;;;10.40;85.50;;;;;;5071965;28;20024;-85
2021/05/25 00:53:01;;;;;;;4.82;0.70;;;10.40;85.40;;;;;;5073025;28;20512;-85
2021/05/25 00:55:32;;;;;;;5.05;0.80;;;10.40;85.40;;;;;;5087858;28;20458;-84
2021/05/25 00:58:01;;;;;;;2.80;0.60;;;10.30;85.40;;;;;;5093267;28;20047;-85
2021/05/25 01:00:31;;;;;;;5.70;0.80;;;10.30;85.60;;;;;;5061355;28;20028;-85
2021/05/25 01:02:57;;;;;;;4.55;0.60;;;10.20;85.90;;;;;;5092036;28;20031;-85
2021/05/25 01:05:23;;;;;;;2.90;0.50;;;10.20;85.90;;;;;;5074562;28;20028;-84
2021/05/25 01:20:15;;;;;;;1.65;0.50;;;10.10;86.20;;;;;;5042381;28;20056;-85
2021/05/25 01:22:41;;;;;;;1.15;0.60;;;10.10;86.20;;;;;;5033054;28;20030;-85
2021/05/25 01:25:13;;;;;;;2.17;0.70;;;10.10;86.40;;;;;;5031712;28;20374;-85
2021/05/25 01:27:39;;;;;;;2.13;0.70;;;10.10;86.40;;;;;;5012672;28;20041;-85
2021/05/25 01:30:08;;;;;;;2.42;0.50;;;10.10;86.40;;;;;;5032780;28;20112;-85
2021/05/25 01:32:34;;;;;;;1.17;0.47;;;10.10;86.20;;;;;;5015216;28;20034;-84
2021/05/25 01:35:00;;;;;;;1.67;0.40;;;10.20;86.10;;;;;;4995429;28;20038;-85
2021/05/25 01:37:26;;;;;;;3.17;0.50;;;10.10;86.20;;;;;;4995636;28;20060;-84
2021/05/25 01:39:55;;;;;;;2.35;0.70;;;10.10;86.40;;;;;;5013018;28;20029;-85
2021/05/25 01:42:21;;;;;;;1.60;0.50;;;10.10;86.20;;;;;;5012399;28;20432;-85
2021/05/25 01:44:47;;;;;;;2.22;0.80;;;10.10;86.20;;;;;;4999298;28;20026;-84
2021/05/25 01:47:16;;;;;;;2.83;0.60;;;10.20;86.30;;;;;;5015406;28;20506;-85
2021/05/25 01:49:42;;;;;;;;;;;10.20;86.40;;;;;;5018074;28;20033;-85
2021/05/25 01:52:08;;;;;;;3.42;0.80;;;10.20;86.20;;;;;;5018728;28;19916;-85
2021/05/25 01:54:33;;;;;;;1.58;0.50;;;10.10;86.60;;;;;;5018920;28;20037;-85
2021/05/25 01:56:59;;;;;;;4.55;0.70;;;10.20;87.30;;;;;;4998844;28;20096;-85
2021/05/25 01:59:24;;;;;;;3.75;0.80;;;10.20;86.90;;;;;;5031363;28;20033;-85
2021/05/25 02:01:50;;;;;;;2.45;0.68;;;10.20;86.90;;;;;;5018542;28;20025;-84
2021/05/25 02:04:16;;;;;;;3.67;0.73;;;10.20;86.90;;;;;;5018260;28;20167;-84
2021/05/25 02:06:41;;;;;;;6.57;0.60;;;10.20;86.80;;;;;;5036038;28;20030;-85
2021/05/25 02:09:07;;;;;;;2.90;1.08;;;10.20;86.90;;;;;;5001980;28;20080;-84
2021/05/25 02:11:32;;;;;;;3.25;0.88;;;10.30;86.90;;;;;;5018411;28;20044;-85
2021/05/25 02:13:58;;;;;;;4.18;0.80;;;10.30;86.70;;;;;;5035716;28;20033;-84
2021/05/25 02:16:24;;;;;;;2.45;0.60;;;10.30;86.60;;;;;;5035806;28;20029;-84
2021/05/25 02:18:49;;;;;;;3.30;0.73;;;10.30;86.60;;;;;;5035749;28;20018;-84
2021/05/25 02:21:17;;;;;;;5.60;0.68;;;10.30;86.70;;;;;;5049926;28;20045;-84
2021/05/25 02:23:44;;;;;;;3.03;0.70;;;10.30;86.80;;;;;;5038189;28;20547;-84
2021/05/25 02:26:11;;;;;;;2.08;0.57;;;10.30;86.80;;;;;;5036786;28;20381;-84
2021/05/25 02:28:37;;;;;;;1.92;0.70;;;10.30;86.50;;;;;;5036808;28;20036;-83
2021/05/25 02:31:03;;;;;;;0.82;0.63;;;10.30;86.30;;;;;;5037001;28;20025;-84
2021/05/25 02:33:28;;;;;;;3.20;0.68;;;10.30;86.40;;;;;;5036800;28;20039;-84
2021/05/25 02:35:56;;;;;;;2.72;0.60;;;10.30;86.60;;;;;;5036806;28;20033;-85
2021/05/25 02:38:23;;;;;;;1.40;0.70;;;10.30;86.90;;;;;;5037572;28;20075;-84
2021/05/25 02:40:50;;;;;;;2.67;0.57;;;10.30;86.80;;;;;;5020885;28;20051;-84
2021/05/25 02:43:19;;;;;;;1.83;1.00;;;10.30;86.60;;;;;;5055610;28;20109;-84
2021/05/25 02:45:45;;;;;;;3.90;0.85;;;10.30;86.80;;;;;;5037371;28;20039;-84
2021/05/25 02:48:11;;;;;;;5.18;0.93;;;10.30;86.80;;;;;;5055326;28;20037;-84
2021/05/25 02:50:37;;;;;;;3.03;0.77;;;10.30;87.00;;;;;;5055277;28;20084;-84
2021/05/25 02:53:03;;;;;;;4.53;0.90;;;10.30;87.00;;;;;;5054857;28;20028;-84
2021/05/25 02:55:34;;;;;;;2.63;0.85;;;10.30;86.90;;;;;;5037225;28;20025;-84
2021/05/25 02:58:01;;;;;;;1.27;0.70;;;10.30;87.10;;;;;;5067281;28;20021;-84
2021/05/25 03:00:29;;;;;;;1.52;0.88;;;10.30;87.30;;;;;;5036818;28;20025;-84
2021/05/25 03:02:56;;;;;;;4.73;0.87;;;10.30;87.10;;;;;;5037246;28;20028;-84
2021/05/25 03:05:24;;;;;;;1.75;0.80;;;10.30;87.10;;;;;;5036961;28;20029;-84
2021/05/25 03:07:57;;;;;;;7.30;0.95;;;10.30;87.20;;;;;;5041879;28;20037;-84
2021/05/25 03:10:28;;;;;;;2.13;0.43;;;10.40;87.40;;;;;;5054966;28;20037;-84
2021/05/25 03:12:54;;;;;;;3.22;0.70;;;10.40;87.00;;;;;;5054860;28;20395;-83
2021/05/25 03:15:32;;;;;;;3.28;0.70;;;10.30;87.00;;;;;;5036902;28;20033;-84
2021/05/25 03:17:57;;;;;;;2.88;0.88;;;10.30;87.30;;;;;;5044936;28;20461;-83
2021/05/25 03:20:24;;;;;;;3.70;0.70;;;10.30;87.20;;;;;;5054132;28;20045;-84
2021/05/25 03:22:50;;;;;;;2.92;0.80;;;10.30;87.20;;;;;;5036426;28;20036;-83
2021/05/25 03:25:17;;;;;;;1.83;0.70;;;10.30;87.50;;;;;;5054509;28;20036;-84
2021/05/25 03:27:43;;;;;;;1.95;0.70;;;10.30;87.30;;;;;;5054507;28;20029;-84
2021/05/25 03:30:14;;;;;;;2.05;0.70;;;10.30;87.10;;;;;;5036518;28;20029;-84
2021/05/25 03:32:40;;;;;;;2.65;0.80;;;10.30;87.20;;;;;;5035633;28;20028;-83
2021/05/25 03:35:07;;;;;;;1.98;0.70;;;10.30;87.40;;;;;;5036311;28;20637;-83
2021/05/25 03:37:33;;;;;;;2.75;0.80;;;10.30;87.30;;;;;;5054418;28;20021;-84
2021/05/25 03:39:59;;;;;;;2.38;0.80;;;10.30;87.20;;;;;;5054435;28;20478;-83
2021/05/25 03:42:25;;;;;;;3.65;0.80;;;10.30;86.90;;;;;;5054103;28;20056;-84
2021/05/25 03:44:51;;;;;;;4.20;0.60;;;10.30;87.20;;;;;;5053798;28;20691;-84
2021/05/25 03:47:18;;;;;;;1.38;0.70;;;10.40;87.30;;;;;;5019621;28;20033;-84
2021/05/25 03:49:46;;;;;;;1.85;0.70;;;10.30;87.20;;;;;;5054188;28;20021;-83
2021/05/25 03:52:12;;;;;;;2.67;0.80;;;10.30;87.30;;;;;;5019958;28;20041;-84
2021/05/25 03:54:39;;;;;;;2.42;0.60;;;10.40;87.30;;;;;;5035723;28;20082;-84
2021/05/25 03:57:13;;;;;;;1.27;0.80;;;10.30;87.20;;;;;;5036101;28;20044;-83
2021/05/25 03:59:38;;;;;;;0.77;0.60;;;10.40;87.10;;;;;;5036187;28;20022;-84
2021/05/25 04:02:04;;;;;;;4.45;0.90;;;10.40;87.10;;;;;;5036114;28;20417;-83
2021/05/25 04:04:31;;;;;;;2.53;0.80;;;10.40;87.10;;;;;;5018677;28;20040;-83
2021/05/25 04:06:57;;;;;;;1.48;0.70;;;10.40;87.30;;;;;;5053184;28;20025;-83
2021/05/25 04:09:23;;;;;;;2.08;0.80;;;10.40;87.30;;;;;;5036080;28;20032;-83
2021/05/25 04:11:48;;;;;;;1.83;1.10;;;10.40;87.40;;;;;;5053233;28;20036;-76
2021/05/25 04:14:14;;;;;;;2.40;0.88;;;10.40;87.30;;;;;;5052690;28;20037;-76
2021/05/25 04:16:41;;;;;;;1.80;0.80;;;10.40;87.10;;;;;;5034497;28;20079;-76
2021/05/25 04:19:07;;;;;;;2.03;0.90;;;10.50;87.10;;;;;;5067798;28;20028;-76
2021/05/25 04:21:32;;;;;;;1.83;1.00;;;10.50;87.10;;;;;;5022689;28;20112;-75
2021/05/25 04:23:58;;;;;;;2.13;0.85;;;10.50;87.30;;;;;;5019884;28;20036;-76
2021/05/25 04:26:25;;;;;;;5.10;1.15;;;10.50;87.30;;;;;;5035491;28;20104;-76
2021/05/25 04:28:50;;;;;;;2.50;0.75;;;10.60;87.40;;;;;;5034939;28;20032;-76
2021/05/25 04:31:16;;;;;;;2.83;0.80;;;10.60;87.30;;;;;;5053145;28;20021;-77
2021/05/25 04:33:42;;;;;;;3.45;0.90;;;10.60;87.00;;;;;;5034803;28;20033;-76
2021/05/25 04:36:07;;;;;;;3.53;0.80;;;10.70;87.00;;;;;;5053158;28;20104;-77
2021/05/25 04:38:33;;;;;;;4.55;0.90;;;10.70;86.90;;;;;;5052382;28;20061;-76
2021/05/25 04:40:58;;;;;;;2.75;1.10;;;10.70;87.00;;;;;;5034904;28;20053;-77
2021/05/25 04:43:24;;;;;;;4.38;1.08;;;10.70;87.40;;;;;;5052706;28;20469;-76
2021/05/25 04:45:50;;;;;;;5.93;1.40;;;10.60;87.60;;;;;;5052914;28;20032;-77
2021/05/25 04:48:17;;;;;;;8.38;1.30;;;10.70;87.80;;;;;;5017741;28;20619;-77
2021/05/25 04:50:42;;;;;;;4.05;1.30;;;10.70;87.90;;;;;;5033581;28;20112;-76
2021/05/25 04:53:08;;;;;;;2.58;1.00;;;10.60;87.70;;;;;;5018358;28;20479;-77
2021/05/25 04:55:34;;;;;;;3.10;1.13;;;10.70;87.70;;;;;;5052417;28;20171;-76
2021/05/25 04:58:00;;;;;;;2.45;1.25;;;10.70;87.80;;;;;;5034659;28;20115;-76
2021/05/25 05:00:27;;;;;;;2.50;0.85;;;10.70;88.00;;;;;;5018430;28;20102;-76
2021/05/25 05:02:54;;;;;;;2.22;1.00;;;10.70;88.00;;;;;;5034546;28;20391;-76
2021/05/25 05:05:20;;;;;;;4.65;1.20;;;10.70;88.10;;;;;;5034961;28;20086;-76
2021/05/25 05:07:47;;;;;;;2.95;1.20;;;10.70;88.20;;;;;;5034829;28;20032;-77
2021/05/25 05:10:13;;;;;;;3.92;1.10;;;10.70;88.30;;;;;;5052126;28;20029;-76
2021/05/25 05:12:40;;;;;;;4.63;1.13;;;10.70;88.30;;;;;;5052478;28;20029;-77
2021/05/25 05:15:06;;;;;;;4.90;0.95;;;10.80;88.30;;;;;;5052811;28;20033;-83
2021/05/25 05:17:33;;;;;;;2.67;1.20;;;10.80;88.30;;;;;;5037962;28;20029;-83
2021/05/25 05:19:59;;;;;;;3.53;1.15;;;10.90;88.40;;;;;;5056995;28;20029;-83
2021/05/25 05:22:25;;;;;;;2.42;1.10;;;11.00;88.30;;;;;;5042192;28;20045;-84
2021/05/25 05:24:50;;;;;;;1.95;0.90;;;11.00;88.00;;;;;;5036881;28;20068;-83
2021/05/25 05:27:17;;;;;;;3.42;0.98;;;10.90;87.80;;;;;;5019218;28;20029;-84
2021/05/25 05:29:42;;;;;;;2.00;1.40;;;10.80;88.10;;;;;;5019023;28;20084;-83
2021/05/25 05:32:08;;;;;;;5.40;1.20;;;10.80;88.20;;;;;;5019457;28;20037;-84
2021/05/25 05:34:34;;;;;;;4.82;1.08;;;10.80;88.50;;;;;;5023291;28;20037;-83
2021/05/25 05:37:00;;;;;;;3.53;1.02;;;10.80;88.60;;;;;;5022457;28;20029;-83
2021/05/25 05:39:25;;;;;;;2.17;0.80;;;10.90;88.60;;;;;;5044301;28;20107;-83
2021/05/25 05:41:51;;;;;;;2.35;1.00;;;10.90;88.60;;;;;;5019052;28;20049;-84
2021/05/25 05:44:17;;;;;;;2.42;1.08;;;10.90;88.60;;;;;;5002695;28;20470;-83
2021/05/25 05:46:42;;;;;;;3.83;1.00;;;10.90;88.30;;;;;;5018871;28;20126;-83
2021/05/25 05:49:08;;;;;;;3.83;1.38;;;10.80;88.50;;;;;;5018801;28;20039;-84
2021/05/25 05:51:34;;;;;;;2.72;1.30;;;10.80;88.60;;;;;;5018810;28;20486;-83
2021/05/25 05:54:00;;;;;;;3.25;1.75;;;10.80;88.70;;;;;;5018706;28;20030;-84
2021/05/25 05:56:26;;;;;;;4.72;1.45;;;10.80;89.00;;;;;;5036723;28;20018;-83
2021/05/25 05:58:52;;;;;;;3.03;1.20;;;10.70;89.00;;;;;;5036483;28;20385;-83
2021/05/25 06:01:18;;;;;;;2.22;0.98;;;10.70;88.70;;;;;;5036217;28;20475;-83
2021/05/25 06:03:44;;;;;;;3.90;1.30;;;10.70;88.90;;;;;;5018924;28;20025;-84
2021/05/25 06:06:11;;;;;;;2.08;1.25;;;10.70;88.90;;;;;;5018593;28;20076;-83
2021/05/25 06:08:37;;;;;;;2.72;1.10;;;10.80;88.10;;;;;;5036291;28;20029;-83
2021/05/25 06:11:03;;;;;;;3.05;1.08;;;10.80;88.20;;;;;;5036068;28;20439;-83
2021/05/25 06:13:29;;;;;;;1.95;0.90;;;10.80;88.30;;;;;;5018522;28;20117;-83
2021/05/25 06:15:58;;;;;;;1.02;0.77;;;10.80;88.40;;;;;;5018174;28;20112;-83
2021/05/25 06:18:24;;;;;;;4.38;1.00;;;10.80;88.60;;;;;;5017689;28;20045;-83
2021/05/25 06:20:49;;;;;;;1.63;0.70;;;10.90;88.70;;;;;;5040165;28;20076;-83
2021/05/25 06:23:15;;;;;;;6.22;1.02;;;11.00;88.00;;;;;;5037891;28;20079;-83
2021/05/25 06:25:41;;;;;;;2.00;0.70;;;11.10;87.20;;;;;;5071388;28;20032;-84
2021/05/25 06:28:07;;;;;;;2.92;0.88;;;11.20;87.70;;;;;;5036916;28;20123;-84
2021/05/25 06:30:33;;;;;;;3.80;0.95;;;11.40;87.40;;;;;;5055787;28;20501;-84
2021/05/25 06:32:59;;;;;;;0.63;0.60;;;11.50;86.50;;;;;;5055593;28;20018;-84
2021/05/25 06:35:25;;;;;;;1.38;0.88;;;11.60;86.30;;;;;;5037638;28;20065;-84
2021/05/25 06:37:51;;;;;;;2.33;0.80;;;11.60;85.10;;;;;;5037921;28;20033;-83
2021/05/25 06:40:17;;;;;;;4.07;1.00;;;11.60;85.50;;;;;;5037736;28;20025;-83
2021/05/25 06:42:44;;;;;;;0.80;0.80;;;11.60;85.40;;;;;;5055439;28;20025;-83
2021/05/25 06:45:10;;;;;;;2.45;0.90;;;11.70;85.30;;;;;;5055330;28;20061;-83
2021/05/25 06:47:37;;;;;;;1.52;1.02;;;11.90;85.40;;;;;;5055363;28;20102;-83
2021/05/25 06:50:04;;;;;;;3.38;1.08;;;12.10;85.00;;;;;;5037868;28;20036;-83
2021/05/25 06:52:30;;;;;;;3.03;1.00;;;12.10;85.40;;;;;;5054844;28;20508;-83
2021/05/25 06:54:57;;;;;;;1.98;1.00;;;12.10;84.70;;;;;;5055129;28;20068;-83
2021/05/25 06:57:22;;;;;;;1.15;0.90;;;12.10;85.40;;;;;;5063373;28;20033;-83
2021/05/25 06:59:48;;;;;;;1.58;0.75;;;12.10;85.00;;;;;;5054861;28;20029;-82
2021/05/25 07:02:14;;;;;;;0.80;0.80;;;12.10;84.90;;;;;;5036251;28;20506;-83
2021/05/25 07:04:40;;;;;;;1.77;0.73;;;12.20;84.70;;;;;;5036181;28;20040;-82
2021/05/25 07:07:06;;;;;;;2.75;1.13;;;12.20;84.30;;;;;;5054515;28;20025;-83
2021/05/25 07:09:32;;;;;;;1.27;0.80;;;12.10;83.70;;;;;;5054833;28;20025;-83
2021/05/25 07:12:02;;;;;;;3.42;1.13;;;12.10;84.50;;;;;;5054814;28;20025;-83
2021/05/25 07:14:27;;;;;;;1.40;0.80;;;12.10;84.90;;;;;;5037535;28;20444;-82
2021/05/25 07:16:53;;;;;;;1.73;0.85;;;12.00;84.90;;;;;;5036979;28;20025;-83
2021/05/25 07:19:19;;;;;;;1.10;0.90;;;12.00;85.10;;;;;;5037117;28;20029;-82
2021/05/25 07:21:44;;;;;;;2.05;1.10;;;12.10;84.90;;;;;;5054508;28;20508;-82
2021/05/25 07:24:10;;;;;;;3.10;1.10;;;12.10;84.80;;;;;;5037442;28;20033;-82
2021/05/25 07:26:36;;;;;;;3.15;1.38;;;12.10;84.70;;;;;;5054677;28;20029;-82
2021/05/25 07:29:02;;;;;;;4.28;1.65;;;12.20;84.80;;;;;;5036889;28;20112;-83
2021/05/25 07:31:27;;;;;;;3.67;1.50;;;12.30;84.70;;;;;;5054232;28;20393;-82
2021/05/25 07:33:53;;;;;;;4.15;1.63;;;12.30;84.80;;;;;;5020387;28;20107;-83
2021/05/25 07:36:19;;;;;;;4.00;1.67;;;12.50;84.60;;;;;;5036833;28;20389;-82
2021/05/25 07:38:46;;;;;;;2.67;1.50;;;12.60;84.20;;;;;;5020234;28;20472;-82
2021/05/25 07:41:12;;;;;;;4.50;1.77;;;12.70;83.90;;;;;;5037038;28;20048;-82
2021/05/25 07:43:37;;;;;;;5.15;1.85;;;12.80;83.60;;;;;;5053935;28;20044;-82
2021/05/25 07:46:03;;;;;;;2.13;1.88;;;12.80;83.30;;;;;;5035857;28;20398;-82
2021/05/25 07:48:30;;;;;;;3.50;2.00;;;12.80;82.70;;;;;;5036538;28;20116;-83
2021/05/25 07:50:56;;;;;;;5.38;2.13;;;12.70;83.50;;;;;;5054264;28;20025;-82
2021/05/25 07:53:21;;;;;;;4.15;2.30;;;12.70;83.10;;;;;;5036001;28;20541;-82
2021/05/25 07:55:47;;;;;;;6.85;2.58;;;12.70;83.00;;;;;;5036025;28;20123;-83
2021/05/25 07:58:13;;;;;;;3.67;2.20;;;12.70;83.40;;;;;;5019090;28;20021;-82
2021/05/25 08:00:39;;;;;;;4.45;2.58;;;12.90;83.00;;;;;;5018661;28;20428;-81
2021/05/25 08:03:05;;;;;;;3.60;2.20;;;13.00;82.70;;;;;;5053214;28;20032;-81
2021/05/25 08:05:32;;;;;;;2.58;2.05;;;13.00;82.80;;;;;;5054090;28;20025;-81
2021/05/25 08:08:00;;;;;;;3.35;2.22;;;13.10;82.80;;;;;;5053806;28;20025;-82
2021/05/25 08:10:26;;;;;;;3.13;2.35;;;13.10;82.50;;;;;;5035941;28;20661;-81
2021/05/25 08:12:52;;;;;;;3.42;2.08;;;13.30;82.20;;;;;;5053812;28;20037;-82
2021/05/25 08:15:18;;;;;;;5.03;2.00;;;13.30;81.70;;;;;;5036016;28;20040;-82
2021/05/25 08:20:22;;;;;;;3.75;2.70;;;13.50;81.20;;;;;;5053737;28;20057;-81
2021/05/25 08:22:54;;;;;;;5.13;3.17;;;13.40;81.30;;;;;;5053154;28;20114;-81
2021/05/25 08:25:26;;;;;;;5.13;2.20;;;13.40;81.50;;;;;;5053418;28;20059;-81
2021/05/25 08:27:53;;;;;;;4.53;2.50;;;13.40;81.80;;;;;;5035641;28;20029;-82
2021/05/25 08:30:22;;;;;;;4.40;2.28;;;13.60;80.60;;;;;;5053260;28;20100;-81
2021/05/25 08:32:50;;;;;;;5.10;2.63;;;13.80;79.30;;;;;;5053548;28;20462;-81
2021/05/25 08:35:17;;;;;;;5.72;2.13;;;14.20;80.20;;;;;;5035402;28;20536;-81
2021/05/25 08:37:47;;;;;;;6.68;1.85;;;14.50;78.60;;;;;;5035591;28;20036;-81
2021/05/25 08:40:13;;;;;;;5.95;1.92;;;14.60;77.20;;;;;;5053351;28;20021;-81
2021/05/25 08:42:39;;;;;;;5.30;1.90;;;14.50;76.90;;;;;;5053351;28;20063;-81
2021/05/25 08:45:07;;;;;;;4.85;1.95;;;14.40;76.50;;;;;;5053533;28;20053;-81
2021/05/25 08:47:35;;;;;;;4.03;1.80;;;14.20;76.40;;;;;;5052126;28;20040;-81
2021/05/25 08:50:01;;;;;;;3.23;1.43;;;14.00;77.20;;;;;;5053451;28;20386;-81
2021/05/25 08:52:27;;;;;;;5.15;1.30;;;14.00;77.40;;;;;;5052945;28;20025;-81
2021/05/25 08:54:53;;;;;;;5.18;1.63;;;14.00;77.70;;;;;;5068626;28;20509;-81
2021/05/25 08:57:18;;;;;;;6.15;1.52;;;14.00;78.00;;;;;;5035387;28;20029;-81
2021/05/25 08:59:44;;;;;;;2.30;0.90;;;14.00;77.90;;;;;;5053202;28;20057;-81
2021/05/25 09:02:13;;;;;;;4.03;1.60;;;13.90;77.70;;;;;;5035171;28;20048;-81
2021/05/25 09:05:08;;;;;;;6.85;1.55;;;13.80;78.00;;;;;;5053045;28;20067;-81
2021/05/25 09:07:57;;;;;;;3.20;1.33;;;13.70;78.80;;;;;;5053327;28;20079;-82
2021/05/25 09:10:23;;;;;;;;;;;13.50;80.30;;;;;;5053284;28;20029;-82
2021/05/25 09:12:54;;;;;;;4.95;1.23;;;13.40;80.80;;;;;;5035136;28;19911;-82
2021/05/25 09:15:37;;;;;;;3.75;1.20;;;13.40;81.00;;;;;;5053027;28;20029;-82
2021/05/25 09:18:11;;;;;;;8.15;2.00;;;13.50;80.30;;;;;;5052989;28;20021;-82
2021/05/25 09:20:37;;;;;;;13.38;3.45;;;13.50;80.90;;;;;;5052891;28;20033;-82
2021/05/25 09:23:03;;;;;;;5.43;1.77;;;13.60;81.30;;;;;;5034923;28;20044;-82
2021/05/25 09:25:30;;;;;;;5.47;1.88;;;13.60;81.00;;;;;;5018822;28;20086;-82
2021/05/25 09:28:15;;;;;;;5.93;1.88;;;13.60;81.10;;;;;;5035530;28;20029;-82
2021/05/25 09:30:42;;;;;;;4.20;2.30;;;13.60;81.10;;;;;;5021228;28;20033;-82
2021/05/25 09:33:09;;;;;;;6.63;2.22;;;13.50;80.30;;;;;;5035123;28;20428;-82
2021/05/25 09:35:38;;;;;;;5.90;2.25;;;13.60;80.80;;;;;;5052787;28;20037;-82
2021/05/25 09:38:09;;;;;;;6.70;2.60;;;13.70;81.10;;;;;;5052893;28;20070;-82
2021/05/25 09:40:36;;;;;;;8.05;2.95;;;13.80;80.90;;;;;;5052697;28;20472;-82
2021/05/25 09:43:13;;;;;;;10.93;3.10;;;14.00;80.40;;;;;;5067555;28;20029;-82
2021/05/25 09:46:06;;;;;;;6.05;3.22;;;14.20;80.10;;;;;;5052409;28;20478;-81
2021/05/25 09:48:52;;;;;;;7.53;3.50;;;14.30;79.20;;;;;;5034940;28;20040;-82
2021/05/25 09:51:29;;;;;;;6.65;3.30;;;14.20;79.20;;;;;;5038099;28;20068;-82
2021/05/25 09:53:56;;;;;;;6.97;2.80;;;14.10;79.30;;;;;;5018544;28;20086;-82
2021/05/25 09:56:26;;;;;;;3.08;1.63;;;14.00;79.40;;;;;;5034679;28;20021;-82
2021/05/25 09:58:53;;;;;;;3.70;1.30;;;13.80;77.80;;;;;;5052579;28;20493;-82
2021/05/25 10:01:18;;;;;;;4.28;1.60;;;13.60;76.90;;;;;;5052788;28;20028;-82
2021/05/25 10:03:54;;;;;;;4.00;1.77;;;13.40;78.00;;;;;;5036198;28;20040;-83
2021/05/25 10:06:20;;;;;;;6.68;2.55;;;13.20;79.20;;;;;;5056211;28;20470;-83
2021/05/25 10:08:48;;;;;;;5.68;2.78;;;13.10;81.00;;;;;;5056219;28;20040;-84
2021/05/25 10:11:18;;;;;;;9.20;3.00;;;12.80;82.20;;;;;;5038486;28;20092;-83
2021/05/25 10:13:44;;;;;;;6.60;3.28;;;12.80;83.40;;;;;;5056097;28;20477;-83
2021/05/25 10:16:12;;;;;;;6.82;3.20;;;12.70;83.90;;;;;;5055703;28;20079;-76
2021/05/25 10:19:01;;;;;;;7.18;2.85;;;12.60;84.00;;;;;;5037899;28;20052;-76
2021/05/25 10:21:27;;;;;;;7.53;2.72;;;12.60;84.10;;;;;;5041074;28;20112;-77
2021/05/25 10:23:54;;;;;;;7.22;2.60;;;12.60;84.10;;;;;;5055316;28;20069;-76
2021/05/25 10:26:23;;;;;;;5.93;2.08;;;12.60;84.60;;;;;;5055293;28;20044;-76
2021/05/25 10:28:51;;;;;;;4.25;1.80;;;12.60;84.30;;;;;;5055515;28;20029;-76
2021/05/25 10:31:28;;;;;;;5.78;2.13;;;12.70;83.50;;;;;;5055627;28;20052;-76
2021/05/25 10:34:12;;;;;;;3.25;2.40;;;12.80;83.60;;;;;;5037451;28;20052;-76
2021/05/25 10:36:55;;;;;;;9.55;3.08;;;13.00;83.60;;;;;;5055384;28;20021;-76
2021/05/25 10:39:41;;;;;;;4.18;2.95;;;13.30;84.00;;;;;;5037498;28;20017;-76
2021/05/25 10:42:23;;;;;;;6.72;4.25;;;13.60;84.10;;;;;;5054982;28;20013;-76
2021/05/25 10:45:11;;;;;;;6.88;3.67;;;13.90;84.70;;;;;;5037387;28;20405;-77
2021/05/25 10:47:49;;;;;;;6.80;3.70;;;14.40;84.20;;;;;;5055176;28;20442;-76
2021/05/25 10:53:04;;;;;;;10.50;4.20;;;14.90;80.80;;;;;;5054998;28;20358;-75
2021/05/25 10:55:33;;;;;;;6.82;4.15;;;15.10;81.70;;;;;;5036689;28;20084;-76
2021/05/25 10:57:59;;;;;;;10.18;3.70;;;15.40;81.30;;;;;;5037580;28;20057;-76
2021/05/25 11:00:41;;;;;;;11.77;4.32;;;15.70;80.20;;;;;;5037024;28;20029;-76
2021/05/25 11:03:12;;;;;;;7.40;3.60;;;16.00;79.20;;;;;;5035855;28;20473;-76
2021/05/25 11:05:46;;;;;;;9.23;3.70;;;16.20;77.40;;;;;;5054133;28;20094;-76
2021/05/25 11:08:14;;;;;;;9.93;4.00;;;16.10;76.70;;;;;;5054066;28;20481;-76
2021/05/25 11:10:41;;;;;;;9.55;3.95;;;16.20;76.50;;;;;;5035910;28;20049;-76
2021/05/25 11:13:16;;;;;;;10.00;4.25;;;16.30;75.80;;;;;;5035561;28;20029;-77
2021/05/25 11:16:16;;;;;;;10.77;4.40;;;16.30;76.10;;;;;;5053823;28;20025;-76
2021/05/25 11:24:21;;;;;;;7.43;3.40;;;16.00;74.10;;;;;;5054000;28;20082;-76
2021/05/25 11:27:07;;;;;;;3.97;1.60;;;15.80;75.50;;;;;;5036355;28;20573;-77
2021/05/25 11:29:36;;;;;;;4.75;1.30;;;15.30;72.90;;;;;;5054103;28;20036;-77
2021/05/25 11:32:06;;;;;;;4.35;1.20;;;14.80;73.40;;;;;;5054158;28;20045;-78
2021/05/25 11:34:32;;;;;;;10.07;1.25;;;14.40;73.20;;;;;;5034019;28;20091;-78
2021/05/25 11:37:02;;;;;;;3.17;0.80;;;14.00;75.60;;;;;;5036217;28;20381;-77
2021/05/25 11:39:29;;;;;;;6.40;1.10;;;13.80;75.90;;;;;;5053324;28;20470;-77
2021/05/25 11:41:56;;;;;;;1.55;0.65;;;13.80;76.70;;;;;;5019738;28;20033;-77
2021/05/25 11:44:30;;;;;;;2.58;0.93;;;13.80;76.50;;;;;;5053985;28;20032;-77
2021/05/25 11:46:56;;;;;;;2.88;0.88;;;13.70;76.80;;;;;;5053792;28;20377;-77
2021/05/25 11:49:22;;;;;;;3.28;0.93;;;13.70;77.20;;;;;;5018900;28;20120;-76
2021/05/25 11:51:48;;;;;;;3.20;0.80;;;13.80;78.30;;;;;;5053582;28;20400;-77
2021/05/25 11:54:19;;;;;;;3.97;0.90;;;14.30;78.30;;;;;;5015687;28;20041;-75
2021/05/25 11:56:50;;;;;;;2.75;0.70;;;15.00;76.20;;;;;;5035295;28;20112;-76
2021/05/25 11:59:21;;;;;;;4.15;1.25;;;15.70;74.80;;;;;;5034873;28;20121;-76
2021/05/25 12:01:48;;;;;;;4.15;1.35;;;16.30;73.10;;;;;;5052894;28;20477;-77
2021/05/25 12:04:15;;;;;;;3.60;1.20;;;16.70;72.00;;;;;;5040943;28;20123;-76
2021/05/25 12:06:48;;;;;;;2.10;1.10;;;17.00;70.10;;;;;;5053868;28;20029;-76
2021/05/25 12:09:14;;;;;;;3.53;1.20;;;17.30;69.30;;;;;;5035148;28;20436;-77
2021/05/25 12:11:41;;;;;;;4.30;1.10;;;17.50;68.10;;;;;;5052680;28;20116;-76
2021/05/25 12:14:12;;;;;;;3.85;1.10;;;17.70;67.80;;;;;;5051212;28;20484;-76
2021/05/25 12:16:38;;;;;;;2.63;0.95;;;17.90;67.00;;;;;;5052534;28;20036;-77
2021/05/25 12:19:08;;;;;;;3.55;1.00;;;17.90;66.70;;;;;;5052186;28;20476;-78
2021/05/25 12:21:34;;;;;;;2.28;0.80;;;17.90;65.90;;;;;;5017853;28;20124;-78
2021/05/25 12:24:00;;;;;;;5.63;1.10;;;18.00;65.50;;;;;;5034719;28;20033;-77
2021/05/25 12:26:26;;;;;;;2.67;0.93;;;18.00;65.80;;;;;;5051536;28;20032;-77
2021/05/25 12:28:56;;;;;;;3.42;0.80;;;18.00;63.50;;;;;;5017567;28;20074;-77
2021/05/25 12:31:27;;;;;;;7.45;0.82;;;18.00;63.90;;;;;;5016953;28;20033;-76
2021/05/25 12:33:53;;;;;;;7.22;0.88;;;18.00;63.40;;;;;;5062207;28;20027;-76
2021/05/25 12:36:29;;;;;;;2.53;0.40;;;18.10;63.20;;;;;;5052314;28;20028;-77
2021/05/25 12:38:56;;;;;;;4.57;0.70;;;18.00;62.90;;;;;;5032188;28;20059;-77
2021/05/25 12:41:22;;;;;;;1.67;0.52;;;18.00;62.90;;;;;;5039688;28;20485;-77
2021/05/25 12:43:48;;;;;;;1.95;0.63;;;18.10;63.00;;;;;;5052062;28;20036;-77
2021/05/25 12:46:15;;;;;;;2.08;0.40;;;18.20;63.10;;;;;;5051935;28;20518;-77
2021/05/25 12:48:43;;;;;;;5.80;0.63;;;18.30;62.30;;;;;;5051548;28;20056;-77
2021/05/25 12:51:10;;;;;;;2.40;0.57;;;18.50;61.90;;;;;;5034518;28;20453;-78
2021/05/25 12:53:51;;;;;;;4.28;0.50;;;18.70;60.70;;;;;;5018787;28;20492;-77
2021/05/25 12:56:19;;;;;;;3.42;0.55;;;19.10;61.20;;;;;;5034850;28;20029;-77
2021/05/25 12:58:47;;;;;;;4.93;0.82;;;19.20;60.70;;;;;;5034703;28;20039;-77
2021/05/25 13:01:33;;;;;;;3.83;0.70;;;19.30;59.30;;;;;;5034830;28;20032;-77
2021/05/25 13:04:02;;;;;;;1.27;0.45;;;19.30;58.90;;;;;;5052809;28;20055;-77
2021/05/25 13:06:35;;;;;;;2.67;0.50;;;19.40;58.60;;;;;;5034803;28;20047;-78
2021/05/25 13:09:20;;;;;;;2.97;0.60;;;19.40;58.70;;;;;;5034693;28;20033;-78
2021/05/25 13:12:07;;;;;;;4.60;0.65;;;19.30;57.80;;;;;;5035047;28;20643;-78
2021/05/25 13:14:33;;;;;;;2.30;0.38;;;19.00;57.80;;;;;;5034911;28;20052;-78
2021/05/25 13:17:13;;;;;;;1.75;0.50;;;18.90;58.10;;;;;;5053614;28;20092;-78
2021/05/25 13:19:41;;;;;;;7.75;0.70;;;18.80;58.00;;;;;;5032688;28;20359;-77
2021/05/25 13:22:14;;;;;;;3.55;0.60;;;18.80;58.00;;;;;;5048183;28;20099;-76
2021/05/25 13:24:56;;;;;;;3.08;0.73;;;18.80;57.70;;;;;;5035161;28;20047;-76
2021/05/25 13:27:27;;;;;;;2.17;0.70;;;19.00;58.00;;;;;;5017600;28;20086;-76